createdAt,value
2019-03-01T00:02:11.063Z,21.93
2019-03-01T00:05:18.199Z,21.43
2019-03-01T00:08:09.688Z,22.47
2019-03-01T00:10:54.146Z,21.60
2019-03-01T00:13:26.484Z,23.40
2019-03-01T00:16:07.662Z,26.60
2019-03-01T00:18:55.245Z,23.33
2019-03-01T00:21:48.150Z,21.27
2019-03-01T00:24:38.322Z,25.40
2019-03-01T00:27:10.660Z,26.87
2019-03-01T00:30:08.705Z,26.60
2019-03-01T00:32:44.230Z,26.37
2019-03-01T00:35:19.635Z,26.67
2019-03-01T00:37:58.038Z,22.87
2019-03-01T00:40:48.462Z,25.40
2019-03-01T00:43:55.327Z,28.90
2019-03-01T00:46:24.635Z,28.63
2019-03-01T00:48:53.877Z,24.73
2019-03-01T00:51:23.151Z,25.87
2019-03-01T00:53:52.409Z,24.20
2019-03-01T00:56:41.050Z,29.13
2019-03-01T00:59:10.365Z,29.27
2019-03-01T01:01:39.633Z,25.13
2019-03-01T01:04:08.895Z,22.50
2019-03-01T01:06:38.177Z,25.70
2019-03-01T01:09:26.748Z,22.70
2019-03-01T01:11:55.999Z,22.33
2019-03-01T01:14:44.631Z,23.33
2019-03-01T01:17:13.979Z,22.50
2019-03-01T01:19:43.290Z,24.50
2019-03-01T01:22:12.526Z,23.80
2019-03-01T01:24:41.802Z,23.60
2019-03-01T01:27:11.165Z,25.37
2019-03-01T01:29:59.747Z,26.90
2019-03-01T01:32:29.163Z,24.50
2019-03-01T01:34:58.394Z,21.77
2019-03-01T01:37:27.712Z,22.27
2019-03-01T01:39:56.954Z,23.97
2019-03-01T01:42:26.236Z,22.50
2019-03-01T01:45:01.369Z,22.70
2019-03-01T01:47:49.973Z,20.83
2019-03-01T01:50:19.331Z,20.87
2019-03-01T01:52:48.639Z,24.77
2019-03-01T01:55:17.930Z,22.17
2019-03-01T01:57:47.232Z,23.80
2019-03-01T02:00:16.566Z,27.10
2019-03-01T02:02:45.886Z,28.30
2019-03-01T02:05:15.269Z,22.33
2019-03-01T02:08:03.978Z,22.57
2019-03-01T02:10:33.232Z,26.97
2019-03-01T02:13:02.511Z,27.50
2019-03-01T02:15:31.754Z,21.03
2019-03-01T02:18:01.171Z,25.57
2019-03-01T02:20:30.407Z,21.93
2019-03-01T02:22:59.658Z,22.00
2019-03-01T02:25:28.910Z,21.63
2019-03-01T02:27:58.202Z,29.30
2019-03-01T02:30:36.409Z,23.83
2019-03-01T02:33:05.642Z,23.80
2019-03-01T02:35:34.966Z,24.07
2019-03-01T02:38:04.392Z,29.23
2019-03-01T02:40:37.027Z,25.87
2019-03-01T02:43:06.464Z,31.30
2019-03-01T02:45:35.826Z,26.10
2019-03-01T02:48:05.246Z,31.17
2019-03-01T02:50:34.503Z,31.47
2019-03-01T02:53:03.755Z,29.80
2019-03-01T02:55:33.076Z,26.97
2019-03-01T02:58:21.652Z,27.87
2019-03-01T03:00:51.048Z,25.93
2019-03-01T03:03:20.298Z,30.43
2019-03-01T03:05:51.262Z,30.53
2019-03-01T03:08:20.504Z,29.03
2019-03-01T03:10:49.780Z,29.80
2019-03-01T03:13:19.078Z,26.87
2019-03-01T03:15:50.028Z,26.93
2019-03-01T03:18:38.631Z,26.97
2019-03-01T03:21:07.871Z,28.40
2019-03-01T03:23:56.472Z,26.47
2019-03-01T03:26:25.786Z,25.40
2019-03-01T03:28:55.027Z,27.00
2019-03-01T03:31:24.307Z,26.30
2019-03-01T03:33:53.559Z,30.00
2019-03-01T03:36:22.810Z,30.43
2019-03-01T03:38:52.133Z,33.83
2019-03-01T03:41:40.731Z,28.27
2019-03-01T03:44:09.988Z,27.53
2019-03-01T03:46:39.232Z,32.07
2019-03-01T03:49:08.688Z,27.60
2019-03-01T03:51:37.962Z,31.20
2019-03-01T03:54:07.209Z,33.30
2019-03-01T03:56:36.539Z,33.80
2019-03-01T03:59:05.987Z,25.50
2019-03-01T04:01:35.290Z,24.23
2019-03-01T04:04:04.660Z,28.13
2019-03-01T04:06:33.959Z,29.27
2019-03-01T04:09:04.782Z,25.57
2019-03-01T04:11:34.023Z,25.90
2019-03-01T04:14:03.305Z,27.83
2019-03-01T04:16:32.564Z,28.60
2019-03-01T04:19:01.824Z,29.03
2019-03-01T04:21:31.100Z,27.27
2019-03-01T04:24:00.420Z,32.07
2019-03-01T04:26:29.732Z,31.30
2019-03-01T04:28:58.995Z,29.87
2019-03-01T04:31:28.397Z,31.73
2019-03-01T04:33:57.627Z,26.40
2019-03-01T04:36:46.291Z,36.17
2019-03-01T04:39:15.644Z,35.47
2019-03-01T04:41:45.033Z,30.33
2019-03-01T04:44:14.446Z,31.93
2019-03-01T04:46:43.695Z,34.37
2019-03-01T04:49:32.411Z,29.20
2019-03-01T04:52:04.727Z,31.67
2019-03-01T04:54:33.999Z,34.90
2019-03-01T04:57:03.311Z,34.83
2019-03-01T04:59:32.558Z,37.33
2019-03-01T05:02:01.830Z,35.70
2019-03-01T05:04:31.078Z,37.13
2019-03-01T05:07:00.320Z,32.90
2019-03-01T05:09:29.579Z,38.83
2019-03-01T05:11:58.827Z,37.40
2019-03-01T05:14:28.076Z,41.80
2019-03-01T05:16:57.387Z,44.80
2019-03-01T05:19:26.676Z,50.40
2019-03-01T05:21:55.935Z,48.03
2019-03-01T05:24:25.167Z,47.67
2019-03-01T05:26:54.422Z,44.17
2019-03-01T05:29:23.688Z,51.23
2019-03-01T05:32:12.292Z,44.97
2019-03-01T05:34:41.598Z,48.03
2019-03-01T05:37:30.164Z,47.03
2019-03-01T05:39:59.515Z,45.83
2019-03-01T05:42:28.744Z,51.00
2019-03-01T05:44:58.004Z,41.77
2019-03-01T05:47:27.248Z,46.80
2019-03-01T05:49:56.519Z,47.23
2019-03-01T05:52:45.100Z,45.07
2019-03-01T05:55:14.614Z,47.07
2019-03-01T05:58:18.828Z,43.93
2019-03-01T06:00:50.375Z,40.90
2019-03-01T06:03:40.911Z,45.00
2019-03-01T06:06:19.318Z,46.87
2019-03-01T06:08:51.655Z,44.47
2019-03-01T06:11:41.786Z,47.43
2019-03-01T06:14:38.144Z,47.83
2019-03-01T06:17:19.886Z,51.17
2019-03-01T06:19:52.247Z,51.00
2019-03-01T06:22:57.835Z,49.90
2019-03-01T06:25:33.276Z,56.53
2019-03-01T06:28:08.387Z,57.33
2019-03-01T06:30:55.539Z,48.60
2019-03-01T06:33:36.564Z,53.97
2019-03-01T06:36:19.477Z,54.60
2019-03-01T06:39:14.641Z,49.10
2019-03-01T06:42:04.447Z,59.40
2019-03-01T06:44:54.562Z,59.93
2019-03-01T06:47:46.611Z,62.23
2019-03-01T06:50:18.167Z,61.40
2019-03-01T06:52:47.493Z,59.07
2019-03-01T06:55:31.759Z,62.27
2019-03-01T06:58:01.140Z,61.57
2019-03-01T07:00:32.696Z,64.77
2019-03-01T07:03:02.110Z,60.20
2019-03-01T07:05:31.442Z,67.83
2019-03-01T07:08:00.701Z,66.40
2019-03-01T07:10:30.041Z,65.90
2019-03-01T07:12:59.268Z,67.03
2019-03-01T07:15:28.523Z,66.27
2019-03-01T07:17:57.767Z,67.07
2019-03-01T07:20:27.126Z,62.80
2019-03-01T07:22:56.467Z,65.43
2019-03-01T07:25:25.725Z,61.93
2019-03-01T07:27:55.023Z,65.30
2019-03-01T07:30:24.383Z,64.53
2019-03-01T07:32:53.606Z,69.80
2019-03-01T07:35:22.880Z,67.10
2019-03-01T07:37:52.206Z,64.87
2019-03-01T07:40:40.929Z,63.63
2019-03-01T07:43:29.591Z,62.93
2019-03-01T07:45:58.884Z,62.63
2019-03-01T07:48:28.202Z,69.07
2019-03-01T07:50:57.520Z,62.00
2019-03-01T07:53:26.935Z,67.40
2019-03-01T07:55:56.161Z,69.23
2019-03-01T07:58:26.738Z,63.70
2019-03-01T08:00:56.132Z,63.67
2019-03-01T08:03:49.800Z,61.10
2019-03-01T08:06:35.019Z,68.30
2019-03-01T08:09:23.640Z,71.83
2019-03-01T08:11:52.908Z,73.40
2019-03-01T08:14:24.667Z,76.90
2019-03-01T08:16:56.111Z,77.23
2019-03-01T08:19:24.243Z,77.70
2019-03-01T08:21:53.506Z,81.70
2019-03-01T08:24:22.783Z,78.33
2019-03-01T08:26:52.047Z,78.23
2019-03-01T08:29:21.348Z,78.97
2019-03-01T08:31:52.703Z,70.60
2019-03-01T08:34:21.598Z,83.40
2019-03-01T08:36:52.400Z,79.73
2019-03-01T08:39:21.698Z,85.53
2019-03-01T08:41:50.994Z,84.40
2019-03-01T08:44:23.233Z,88.90
2019-03-01T08:47:10.682Z,117.87
2019-03-01T08:49:39.960Z,109.93
2019-03-01T08:52:09.209Z,106.73
2019-03-01T08:54:38.470Z,102.60
2019-03-01T08:57:07.724Z,99.90
2019-03-01T08:59:36.979Z,100.63
2019-03-01T09:02:25.585Z,98.23
2019-03-01T09:04:54.832Z,103.00
2019-03-01T09:07:27.175Z,100.47
2019-03-01T09:09:57.268Z,104.13
2019-03-01T09:12:27.051Z,129.77
2019-03-01T09:14:56.957Z,125.43
2019-03-01T09:17:26.475Z,128.57
2019-03-01T09:19:57.207Z,140.33
2019-03-01T09:22:28.044Z,135.20
2019-03-01T09:24:57.676Z,148.93
2019-03-01T09:27:30.312Z,149.00
2019-03-01T09:30:21.154Z,141.30
2019-03-01T09:32:50.498Z,139.70
2019-03-01T09:35:25.427Z,143.53
2019-03-01T09:38:14.170Z,147.13
2019-03-01T09:40:43.503Z,153.20
2019-03-01T09:43:12.791Z,159.03
2019-03-01T09:45:42.138Z,144.40
2019-03-01T09:48:12.222Z,142.30
2019-03-01T09:50:42.291Z,143.93
2019-03-01T09:53:48.870Z,143.97
2019-03-01T09:56:18.277Z,139.97
2019-03-01T09:58:47.648Z,130.83
2019-03-01T10:01:19.754Z,135.27
2019-03-01T10:03:49.858Z,143.10
2019-03-01T10:06:56.503Z,138.03
2019-03-01T10:09:25.857Z,134.53
2019-03-01T10:11:55.130Z,154.70
2019-03-01T10:14:24.430Z,147.80
2019-03-01T10:16:53.766Z,147.77
2019-03-01T10:19:23.052Z,136.83
2019-03-01T10:21:52.377Z,127.37
2019-03-01T10:24:21.671Z,137.03
2019-03-01T10:26:50.935Z,138.27
2019-03-01T10:29:20.183Z,138.63
2019-03-01T10:31:49.463Z,145.30
2019-03-01T10:34:18.779Z,159.67
2019-03-01T10:36:48.053Z,183.33
2019-03-01T10:39:17.565Z,161.10
2019-03-01T10:41:48.643Z,144.27
2019-03-01T10:44:17.864Z,158.77
2019-03-01T10:46:47.273Z,183.73
2019-03-01T10:49:17.430Z,188.43
2019-03-01T10:51:46.698Z,165.60
2019-03-01T10:54:15.968Z,175.67
2019-03-01T10:56:45.290Z,163.77
2019-03-01T10:59:14.577Z,170.70
2019-03-01T11:01:43.952Z,164.77
2019-03-01T11:04:13.216Z,172.40
2019-03-01T11:06:42.486Z,182.80
2019-03-01T11:09:11.726Z,146.83
2019-03-01T11:11:41.320Z,134.03
2019-03-01T11:14:10.716Z,122.37
2019-03-01T11:16:39.954Z,144.43
2019-03-01T11:19:09.334Z,144.43
2019-03-01T11:21:38.579Z,146.63
2019-03-01T11:24:07.860Z,154.70
2019-03-01T11:27:31.875Z,163.97
2019-03-01T11:30:01.222Z,156.70
2019-03-01T11:32:30.464Z,164.93
2019-03-01T11:34:59.719Z,170.60
2019-03-01T11:37:29.098Z,165.03
2019-03-01T11:39:58.341Z,167.47
2019-03-01T11:42:27.615Z,150.90
2019-03-01T11:44:56.933Z,144.57
2019-03-01T11:47:26.297Z,145.33
2019-03-01T11:49:55.565Z,142.17
2019-03-01T11:52:24.847Z,139.80
2019-03-01T11:54:54.104Z,145.30
2019-03-01T11:57:23.350Z,147.83
2019-03-01T11:59:52.640Z,158.63
2019-03-01T12:02:21.988Z,131.50
2019-03-01T12:05:11.465Z,130.17
2019-03-01T12:07:40.784Z,119.53
2019-03-01T12:10:13.008Z,129.33
2019-03-01T12:12:42.383Z,120.83
2019-03-01T12:15:12.985Z,119.67
2019-03-01T12:17:42.479Z,96.97
2019-03-01T12:20:31.639Z,120.17
2019-03-01T12:23:06.802Z,102.30
2019-03-01T12:25:36.871Z,113.50
2019-03-01T12:28:06.229Z,90.47
2019-03-01T12:30:35.559Z,77.80
2019-03-01T12:33:04.828Z,71.77
2019-03-01T12:35:34.118Z,63.47
2019-03-01T12:38:03.427Z,60.43
2019-03-01T12:40:32.870Z,60.10
2019-03-01T12:43:03.695Z,48.40
2019-03-01T12:45:33.006Z,53.07
2019-03-01T12:48:02.411Z,49.70
2019-03-01T12:50:31.711Z,47.80
2019-03-01T12:53:00.982Z,53.73
2019-03-01T12:55:31.803Z,48.77
2019-03-01T12:58:01.128Z,53.67
2019-03-01T13:00:35.035Z,43.80
2019-03-01T13:03:05.173Z,43.10
2019-03-01T13:05:35.448Z,41.23
2019-03-01T13:08:04.981Z,32.13
2019-03-01T13:10:39.834Z,25.70
2019-03-01T13:13:08.505Z,34.03
2019-03-01T13:15:38.111Z,31.40
2019-03-01T13:18:10.297Z,38.97
2019-03-01T13:20:38.523Z,32.57
2019-03-01T13:23:07.772Z,36.03
2019-03-01T13:25:37.047Z,39.17
2019-03-01T13:28:06.434Z,38.10
2019-03-01T13:30:36.685Z,43.97
2019-03-01T13:33:06.107Z,44.37
2019-03-01T13:35:35.392Z,43.30
2019-03-01T13:38:04.732Z,46.20
2019-03-01T13:40:35.027Z,39.13
2019-03-01T13:43:04.303Z,47.73
2019-03-01T13:45:33.551Z,46.17
2019-03-01T13:48:03.385Z,40.93
2019-03-01T13:50:33.777Z,39.87
2019-03-01T13:53:03.055Z,40.53
2019-03-01T13:55:32.306Z,41.20
2019-03-01T13:58:01.707Z,36.80
2019-03-01T14:00:31.206Z,35.87
2019-03-01T14:03:00.489Z,35.10
2019-03-01T14:05:29.845Z,31.83
2019-03-01T14:08:08.407Z,34.33
2019-03-01T14:10:30.460Z,35.13
2019-03-01T14:12:59.765Z,34.07
2019-03-01T14:15:29.959Z,35.40
2019-03-01T14:18:01.157Z,36.00
2019-03-01T14:20:30.484Z,33.90
2019-03-01T14:22:59.756Z,37.27
2019-03-01T14:25:29.011Z,29.90
2019-03-01T14:27:58.321Z,31.70
2019-03-01T14:30:46.909Z,32.27
2019-03-01T14:33:16.163Z,33.53
2019-03-01T14:35:45.399Z,33.40
2019-03-01T14:38:14.740Z,30.30
2019-03-01T14:40:44.007Z,34.30
2019-03-01T14:43:13.365Z,32.30
2019-03-01T14:45:44.706Z,33.13
2019-03-01T14:48:13.780Z,29.03
2019-03-01T14:51:20.120Z,39.40
2019-03-01T14:53:49.367Z,32.10
2019-03-01T14:56:21.737Z,30.13
2019-03-01T14:59:02.792Z,26.60
2019-03-01T15:01:35.138Z,27.80
2019-03-01T15:04:28.507Z,34.13
2019-03-01T15:06:55.127Z,26.50
2019-03-01T15:09:25.463Z,31.20
2019-03-01T15:11:54.711Z,32.67
2019-03-01T15:14:24.136Z,36.60
2019-03-01T15:16:53.367Z,28.87
2019-03-01T15:19:22.719Z,36.93
2019-03-01T15:21:51.973Z,29.50
2019-03-01T15:24:21.253Z,36.83
2019-03-01T15:26:50.607Z,33.50
2019-03-01T15:29:19.902Z,29.00
2019-03-01T15:31:51.209Z,32.07
2019-03-01T15:34:23.582Z,36.67
2019-03-01T15:36:52.562Z,32.13
2019-03-01T15:39:22.281Z,33.70
2019-03-01T15:41:51.541Z,33.90
2019-03-01T15:44:20.828Z,32.73
2019-03-01T15:46:51.067Z,31.87
2019-03-01T15:49:23.662Z,29.87
2019-03-01T15:51:51.468Z,28.17
2019-03-01T15:54:20.865Z,36.17
2019-03-01T15:56:50.164Z,30.07
2019-03-01T15:59:19.459Z,33.00
2019-03-01T16:01:48.779Z,36.83
2019-03-01T16:04:18.012Z,34.27
2019-03-01T16:06:48.559Z,34.73
2019-03-01T16:09:17.906Z,39.63
2019-03-01T16:11:47.304Z,35.13
2019-03-01T16:14:16.539Z,29.93
2019-03-01T16:16:48.954Z,32.30
2019-03-01T16:19:16.769Z,32.33
2019-03-01T16:21:46.093Z,29.83
2019-03-01T16:24:15.482Z,41.33
2019-03-01T16:26:44.873Z,35.87
2019-03-01T16:29:14.138Z,34.30
2019-03-01T16:31:43.393Z,37.13
2019-03-01T16:34:12.695Z,37.33
2019-03-01T16:36:43.572Z,30.80
2019-03-01T16:39:13.020Z,32.00
2019-03-01T16:41:42.850Z,39.80
2019-03-01T16:44:50.177Z,34.37
2019-03-01T16:47:19.425Z,32.67
2019-03-01T16:49:48.757Z,29.63
2019-03-01T16:52:18.075Z,24.30
2019-03-01T16:54:47.547Z,24.03
2019-03-01T16:57:18.699Z,19.40
2019-03-01T16:59:47.995Z,30.20
2019-03-01T17:02:17.339Z,18.20
2019-03-01T17:08:23.669Z,23.83
2019-03-01T17:10:53.027Z,14.67
2019-03-01T17:13:23.575Z,16.17
2019-03-01T17:15:53.405Z,18.20
2019-03-01T17:18:22.741Z,17.57
2019-03-01T17:20:52.010Z,21.27
2019-03-01T17:23:21.346Z,19.17
2019-03-01T17:25:50.622Z,15.67
2019-03-01T17:28:41.330Z,18.47
2019-03-01T17:31:12.352Z,17.00
2019-03-01T17:33:45.064Z,13.50
2019-03-01T17:36:16.400Z,14.33
2019-03-01T17:38:46.157Z,14.10
2019-03-01T17:41:15.660Z,20.80
2019-03-01T17:43:44.901Z,26.83
2019-03-01T17:46:14.218Z,16.53
2019-03-01T17:48:43.506Z,16.70
2019-03-01T17:51:12.742Z,16.30
2019-03-01T17:53:46.309Z,15.70
2019-03-01T17:56:18.689Z,14.13
2019-03-01T17:58:48.487Z,11.67
2019-03-01T18:01:17.772Z,11.90
2019-03-01T18:03:47.022Z,11.20
2019-03-01T18:06:16.840Z,9.97
2019-03-01T18:08:47.200Z,12.60
2019-03-01T18:11:16.429Z,10.60
2019-03-01T18:13:45.684Z,11.63
2019-03-01T18:16:14.960Z,18.00
2019-03-01T18:18:48.773Z,16.83
2019-03-01T18:21:15.350Z,14.90
2019-03-01T18:23:44.615Z,16.07
2019-03-01T18:26:13.946Z,14.60
2019-03-01T18:28:43.212Z,20.57
2019-03-01T18:31:12.687Z,15.27
2019-03-01T18:33:42.694Z,16.10
2019-03-01T18:36:12.123Z,13.27
2019-03-01T18:38:41.518Z,9.73
2019-03-01T18:41:11.189Z,14.03
2019-03-01T18:43:40.564Z,10.73
2019-03-01T18:46:09.860Z,11.20
2019-03-01T18:48:40.495Z,10.57
2019-03-01T18:51:10.358Z,10.50
2019-03-01T18:53:39.768Z,8.70
2019-03-01T18:56:09.193Z,6.53
2019-03-01T18:58:38.563Z,14.53
2019-03-01T19:01:10.740Z,10.13
2019-03-01T19:03:41.514Z,9.67
2019-03-01T19:06:12.844Z,10.67
2019-03-01T19:08:42.053Z,11.57
2019-03-01T19:11:30.711Z,12.07
2019-03-01T19:14:01.858Z,8.20
2019-03-01T19:16:31.056Z,8.90
2019-03-01T19:19:00.399Z,12.30
2019-03-01T19:21:29.802Z,11.10
2019-03-01T19:23:59.043Z,14.13
2019-03-01T19:26:28.384Z,13.60
2019-03-01T19:28:59.015Z,12.73
2019-03-01T19:31:28.734Z,16.47
2019-03-01T19:33:57.975Z,10.30
2019-03-01T19:36:46.607Z,17.50
2019-03-01T19:39:19.763Z,8.30
2019-03-01T19:41:49.135Z,10.73
2019-03-01T19:44:18.436Z,12.97
2019-03-01T19:46:51.174Z,13.60
2019-03-01T19:49:19.804Z,14.87
2019-03-01T19:51:49.222Z,13.43
2019-03-01T19:54:18.497Z,9.13
2019-03-01T19:56:47.820Z,9.73
2019-03-01T19:59:17.151Z,11.13
2019-03-01T20:01:49.368Z,9.90
2019-03-01T20:04:36.832Z,11.27
2019-03-01T20:07:06.234Z,15.57
2019-03-01T20:09:36.541Z,9.60
2019-03-01T20:12:06.795Z,11.83
2019-03-01T20:14:36.062Z,12.30
2019-03-01T20:17:05.447Z,10.63
2019-03-01T20:19:34.748Z,15.60
2019-03-01T20:22:04.130Z,11.77
2019-03-01T20:24:33.470Z,8.73
2019-03-01T20:27:03.082Z,6.30
2019-03-01T20:29:33.228Z,7.43
2019-03-01T20:32:04.374Z,8.60
2019-03-01T20:34:34.789Z,8.00
2019-03-01T20:37:04.754Z,10.03
2019-03-01T20:39:34.183Z,7.30
2019-03-01T20:42:03.625Z,9.47
2019-03-01T20:44:33.016Z,8.57
2019-03-01T20:47:02.355Z,8.77
2019-03-01T20:49:50.957Z,14.70
2019-03-01T20:52:20.253Z,11.13
2019-03-01T20:54:49.520Z,20.40
2019-03-01T20:57:18.877Z,13.57
2019-03-01T20:59:50.611Z,12.30
2019-03-01T21:02:19.154Z,12.53
2019-03-01T21:04:53.198Z,12.10
2019-03-01T21:07:19.418Z,14.40
2019-03-01T21:10:12.582Z,15.30
2019-03-01T21:12:40.535Z,10.87
2019-03-01T21:15:12.258Z,13.87
2019-03-01T21:17:41.672Z,12.63
2019-03-01T21:20:16.046Z,13.67
2019-03-01T21:22:44.639Z,11.10
2019-03-01T21:25:19.933Z,11.20
2019-03-01T21:27:49.194Z,10.47
2019-03-01T21:30:26.861Z,10.80
2019-03-01T21:32:56.295Z,7.40
2019-03-01T21:35:47.796Z,11.20
2019-03-01T21:38:15.971Z,8.70
2019-03-01T21:40:46.919Z,13.77
2019-03-01T21:43:16.240Z,8.43
2019-03-01T21:45:45.619Z,10.67
2019-03-01T21:48:15.027Z,10.17
2019-03-01T21:50:44.423Z,8.83
2019-03-01T21:53:13.656Z,11.43
2019-03-01T21:55:42.955Z,10.37
2019-03-01T21:58:12.271Z,9.50
2019-03-01T22:00:41.516Z,11.40
2019-03-01T22:03:10.771Z,15.40
2019-03-01T22:05:40.009Z,11.00
2019-03-01T22:08:09.509Z,12.60
2019-03-01T22:10:40.328Z,14.70
2019-03-01T22:13:09.605Z,11.47
2019-03-01T22:15:38.862Z,11.30
2019-03-01T22:18:08.107Z,14.13
2019-03-01T22:20:37.407Z,13.53
2019-03-01T22:23:10.269Z,17.70
2019-03-01T22:25:37.872Z,15.47
2019-03-01T22:28:07.473Z,11.70
2019-03-01T22:30:36.837Z,16.83
2019-03-01T22:33:06.199Z,15.93
2019-03-01T22:35:35.495Z,16.13
2019-03-01T22:38:05.526Z,20.90
2019-03-01T22:40:36.425Z,16.00
2019-03-01T22:43:26.112Z,13.90
2019-03-01T22:45:56.011Z,18.13
2019-03-01T22:48:25.403Z,22.00
2019-03-01T22:50:54.653Z,18.33
2019-03-01T22:53:23.917Z,24.63
2019-03-01T22:55:53.170Z,34.63
2019-03-01T22:58:22.439Z,21.03
2019-03-01T23:00:59.372Z,26.07
2019-03-01T23:03:28.636Z,25.97
2019-03-01T23:05:57.912Z,25.87
2019-03-01T23:08:27.189Z,25.60
2019-03-01T23:10:57.051Z,40.37
2019-03-01T23:13:27.204Z,29.07
2019-03-01T23:15:56.552Z,35.73
2019-03-01T23:18:25.790Z,33.77
2019-03-01T23:21:14.461Z,33.47
2019-03-01T23:23:43.735Z,31.77
2019-03-01T23:26:13.166Z,37.50
2019-03-01T23:28:43.808Z,32.77
2019-03-01T23:31:13.369Z,34.73
2019-03-01T23:33:42.626Z,32.77
2019-03-01T23:36:12.377Z,33.43
2019-03-01T23:38:41.672Z,30.37
2019-03-01T23:41:30.247Z,34.83
2019-03-01T23:44:02.848Z,32.67
2019-03-01T23:46:30.468Z,34.50
2019-03-01T23:49:06.070Z,29.80
2019-03-01T23:51:30.678Z,33.30
2019-03-01T23:53:59.950Z,25.97
2019-03-01T23:56:29.766Z,26.90
2019-03-01T23:58:59.752Z,24.80
